Terminal Aerodrome Forecast
Issued by NWS

Home | Current Version | Previous Version | Text Only | Print | Product List | Glossary On
Versions: 1 2 3 4 5 6 7 8 9 10 11 12 13 14 15 16 17 18 19 20 21 22
000
FTUS46 KPDT 110824 AAB
TAFPSC
TAF AMD
KPSC 110824Z 1108/1206 35003KT P6SM SCT013 BKN120
      TEMPO 1109/1111 3SM BR BKN015 OVC120
     FM111100 VRB03KT P6SM VCSH BKN016 OVC040
     FM111500 22006KT P6SM -FZRASN SCT008 OVC014
     FM112000 22009KT P6SM VCSH SCT018 OVC045=

USA.gov is the U.S. government's official web portal to all federal, state and local government web resources and services.